Time;durP1;ratioP1;P1;durP2;ratioP2;P2;SDS_P1;SDS_P2;PMS_P1;PMS_P2;Temp;Humidity;BMP_temperature;BMP_pressure;BME280_temperature;BME280_humidity;BME280_pressure;Samples;Min_cycle;Max_cycle;Signal;HPM_P1;HPM_P2
2023/09/27 00:00:30;;;;;;;9.10;6.67;;;;;;;20.80;100.00;96654.47;5035689;28;20025;-85
2023/09/27 00:02:57;;;;;;;9.27;7.20;;;;;;;20.84;100.00;96648.47;5036976;28;20021;-85
2023/09/27 00:05:25;;;;;;;10.10;7.37;;;;;;;20.62;100.00;96650.66;5041957;28;20021;-85
2023/09/27 00:07:53;;;;;;;12.10;7.87;;;;;;;20.96;100.00;96648.63;5028057;28;20026;-85
2023/09/27 00:10:19;;;;;;;14.53;8.47;;;;;;;21.19;100.00;96640.88;5020455;28;20029;-84
2023/09/27 00:12:48;;;;;;;12.77;8.50;;;;;;;21.30;100.00;96642.03;5015522;28;20476;-85
2023/09/27 00:15:14;;;;;;;12.87;8.57;;;;;;;20.87;100.00;96648.03;5014709;28;20029;-85
2023/09/27 00:17:42;;;;;;;8.67;7.20;;;;;;;20.94;100.00;96643.47;5034520;28;20079;-85
2023/09/27 00:20:13;;;;;;;9.17;7.13;;;;;;;21.08;100.00;96638.03;5031024;28;20072;-85
2023/09/27 00:22:39;;;;;;;11.27;7.47;;;;;;;21.05;100.00;96636.63;5031799;28;20049;-84
2023/09/27 00:25:08;;;;;;;9.67;6.77;;;;;;;21.06;100.00;96637.44;5033113;28;20061;-84
2023/09/27 00:27:35;;;;;;;11.33;7.43;;;;;;;20.83;100.00;96638.81;5034510;28;20024;-83
2023/09/27 00:30:01;;;;;;;10.83;7.47;;;;;;;21.02;100.00;96645.06;5035550;28;20164;-84
2023/09/27 00:32:27;;;;;;;11.57;7.53;;;;;;;21.01;100.00;96637.28;5021183;28;20017;-84
2023/09/27 00:34:52;;;;;;;10.07;7.47;;;;;;;20.76;100.00;96634.53;5035413;28;20024;-84
2023/09/27 00:37:18;;;;;;;10.60;7.10;;;;;;;20.73;100.00;96635.78;5028656;28;20087;-84
2023/09/27 00:39:45;;;;;;;10.77;6.97;;;;;;;20.44;100.00;96632.56;5026830;28;20088;-85
2023/09/27 00:42:11;;;;;;;9.53;6.53;;;;;;;20.76;100.00;96638.03;5036290;28;20044;-84
2023/09/27 00:44:37;;;;;;;20.83;7.60;;;;;;;20.80;100.00;96636.56;5020822;28;20079;-85
2023/09/27 00:47:06;;;;;;;10.43;7.00;;;;;;;20.89;100.00;96639.78;5032260;28;20021;-85
2023/09/27 00:49:33;;;;;;;10.07;7.13;;;;;;;21.03;100.00;96633.34;5035669;28;20025;-85
2023/09/27 00:52:00;;;;;;;9.30;7.00;;;;;;;21.27;100.00;96644.31;5035706;28;20059;-85
2023/09/27 00:54:27;;;;;;;11.63;7.80;;;;;;;21.19;100.00;96632.84;5042539;28;20075;-84
2023/09/27 00:56:53;;;;;;;11.37;8.00;;;;;;;21.11;100.00;96629.59;5034918;28;20036;-85
2023/09/27 00:59:20;;;;;;;12.43;9.07;;;;;;;21.15;100.00;96626.25;5018126;28;20018;-85
2023/09/27 01:01:46;;;;;;;11.63;8.40;;;;;;;21.17;100.00;96626.88;5011961;28;20391;-85
2023/09/27 01:04:16;;;;;;;10.57;9.07;;;;;;;20.88;100.00;96628.28;5032002;28;20021;-85
2023/09/27 01:06:43;;;;;;;15.00;9.53;;;;;;;20.40;100.00;96627.88;5012593;28;20097;-85
2023/09/27 01:09:11;;;;;;;10.57;8.33;;;;;;;20.57;100.00;96636.28;5026001;28;20506;-85
2023/09/27 01:11:38;;;;;;;10.63;8.57;;;;;;;20.56;100.00;96631.97;5015246;28;20088;-84
2023/09/27 01:14:04;;;;;;;12.50;9.13;;;;;;;20.33;100.00;96625.25;5025594;28;20021;-85
2023/09/27 01:16:30;;;;;;;11.53;7.80;;;;;;;20.43;100.00;96638.97;5017815;28;20040;-85
2023/09/27 01:19:01;;;;;;;13.03;8.40;;;;;;;20.62;100.00;96634.63;5015507;28;20115;-85
2023/09/27 01:21:27;;;;;;;10.13;7.63;;;;;;;20.82;100.00;96639.81;5042812;28;20514;-85
2023/09/27 01:23:53;;;;;;;12.10;8.40;;;;;;;20.57;100.00;96641.63;5041527;28;20044;-84
2023/09/27 01:26:20;;;;;;;9.47;7.27;;;;;;;20.73;100.00;96641.13;5035204;28;20017;-85
2023/09/27 01:28:46;;;;;;;11.20;7.77;;;;;;;20.71;100.00;96635.16;5034309;28;20029;-85
2023/09/27 01:31:12;;;;;;;12.57;8.40;;;;;;;20.71;100.00;96638.66;5022131;28;20021;-85
2023/09/27 01:33:39;;;;;;;10.40;7.77;;;;;;;20.64;100.00;96642.41;5031029;28;20445;-85
2023/09/27 01:36:05;;;;;;;11.80;8.53;;;;;;;20.57;100.00;96641.63;5031779;28;20506;-84
2023/09/27 01:38:31;;;;;;;10.87;8.57;;;;;;;20.78;100.00;96641.28;5028310;28;20025;-84
2023/09/27 01:40:57;;;;;;;12.27;9.00;;;;;;;20.24;100.00;96635.31;5035251;28;20029;-84
2023/09/27 01:43:23;;;;;;;14.47;10.17;;;;;;;20.67;100.00;96631.28;5041406;28;20021;-84
2023/09/27 01:45:48;;;;;;;13.13;9.47;;;;;;;20.85;100.00;96631.38;5045389;28;20031;-85
2023/09/27 01:48:14;;;;;;;9.83;8.40;;;;;;;20.65;100.00;96634.16;5019305;28;20025;-85
2023/09/27 01:50:39;;;;;;;12.53;10.03;;;;;;;20.65;100.00;96630.66;5020214;28;20376;-85
2023/09/27 01:53:15;;;;;;;12.80;9.03;;;;;;;20.75;100.00;96633.69;5023546;28;20079;-85
2023/09/27 01:55:40;;;;;;;14.00;9.10;;;;;;;20.60;100.00;96638.53;5021736;28;20406;-84
2023/09/27 01:58:07;;;;;;;10.53;8.57;;;;;;;20.48;100.00;96649.00;5013143;28;20118;-84
2023/09/27 02:00:32;;;;;;;14.63;9.23;;;;;;;20.72;100.00;96652.84;5044916;28;20112;-85
2023/09/27 02:03:00;;;;;;;11.67;8.83;;;;;;;20.84;100.00;96648.47;5018095;28;20299;-84
2023/09/27 02:05:27;;;;;;;11.37;9.70;;;;;;;20.60;100.00;96646.53;5017116;28;20028;-84
2023/09/27 02:07:53;;;;;;;11.10;9.87;;;;;;;20.43;100.00;96649.66;5011649;28;20029;-85
2023/09/27 02:10:20;;;;;;;13.23;10.73;;;;;;;19.98;100.00;96644.22;5033059;28;20027;-84
2023/09/27 02:12:46;;;;;;;13.87;10.30;;;;;;;20.39;100.00;96636.94;5031322;28;20034;-84
2023/09/27 02:15:13;;;;;;;10.70;9.03;;;;;;;20.47;100.00;96642.03;5016850;28;20522;-84
2023/09/27 02:17:39;;;;;;;10.87;9.37;;;;;;;20.60;100.00;96651.88;5029832;28;20568;-84
2023/09/27 02:20:10;;;;;;;12.13;8.77;;;;;;;20.48;100.00;96649.81;5031712;28;20026;-84
2023/09/27 02:22:36;;;;;;;13.83;9.40;;;;;;;20.72;100.00;96650.16;5016565;28;20029;-85
2023/09/27 02:25:08;;;;;;;13.33;9.77;;;;;;;20.64;100.00;96651.22;5025507;28;20476;-84
2023/09/27 02:27:36;;;;;;;13.00;9.83;;;;;;;20.41;100.00;96654.38;5012653;28;20034;-85
2023/09/27 02:30:11;;;;;;;14.07;9.13;;;;;;;20.05;100.00;96659.41;5032871;28;20132;-84
2023/09/27 02:32:42;;;;;;;13.40;10.10;;;;;;;20.16;100.00;96664.94;5015911;28;20152;-84
2023/09/27 02:35:09;;;;;;;12.33;9.23;;;;;;;19.72;100.00;96665.63;5016466;28;20083;-84
2023/09/27 02:37:39;;;;;;;12.40;9.47;;;;;;;19.62;100.00;96662.53;5015909;28;20021;-84
2023/09/27 02:40:14;;;;;;;12.40;9.57;;;;;;;19.59;100.00;96666.41;5013426;28;20038;-84
2023/09/27 02:42:41;;;;;;;12.27;9.07;;;;;;;19.59;100.00;96665.59;5013013;28;20022;-84
2023/09/27 02:45:08;;;;;;;10.93;8.23;;;;;;;19.76;100.00;96662.31;5024470;28;20029;-84
2023/09/27 02:47:35;;;;;;;13.10;8.83;;;;;;;19.64;100.00;96660.47;5016084;28;20049;-84
2023/09/27 02:50:05;;;;;;;12.70;8.23;;;;;;;19.49;100.00;96656.16;5042932;28;20033;-83
2023/09/27 02:52:32;;;;;;;11.83;9.00;;;;;;;19.47;100.00;96652.84;5036720;28;20142;-84
2023/09/27 02:54:58;;;;;;;11.17;8.83;;;;;;;19.30;100.00;96659.63;5028597;28;20036;-84
2023/09/27 02:57:27;;;;;;;11.57;9.17;;;;;;;19.30;100.00;96660.44;5029642;28;20021;-84
2023/09/27 02:59:53;;;;;;;11.57;9.10;;;;;;;19.18;100.00;96656.75;5032760;28;20022;-84
2023/09/27 03:02:20;;;;;;;12.20;9.60;;;;;;;19.61;100.00;96650.19;5016174;28;21606;-84
2023/09/27 03:04:47;;;;;;;11.67;8.77;;;;;;;19.47;100.00;96650.19;5015529;28;20030;-83
2023/09/27 03:07:15;;;;;;;11.33;8.70;;;;;;;19.48;100.00;96661.66;5012936;28;20053;-84
2023/09/27 03:09:44;;;;;;;12.03;9.27;;;;;;;19.72;100.00;96654.94;5016600;28;20029;-84
2023/09/27 03:12:11;;;;;;;14.47;9.60;;;;;;;19.52;100.00;96655.75;5032010;28;20025;-84
2023/09/27 03:14:37;;;;;;;13.27;9.57;;;;;;;19.18;100.00;96647.91;5037827;28;20056;-84
2023/09/27 03:17:03;;;;;;;16.43;10.53;;;;;;;19.25;100.00;96646.91;5035071;28;20037;-84
2023/09/27 03:19:29;;;;;;;13.73;10.20;;;;;;;19.64;100.00;96650.63;5032499;28;20022;-84
2023/09/27 03:21:55;;;;;;;14.03;9.90;;;;;;;19.39;100.00;96647.72;5027595;28;20033;-84
2023/09/27 03:24:21;;;;;;;13.53;9.73;;;;;;;19.47;100.00;96644.84;5026627;28;20080;-84
2023/09/27 03:26:48;;;;;;;16.57;11.93;;;;;;;19.84;100.00;96641.78;5029488;28;20364;-84
2023/09/27 03:29:13;;;;;;;15.30;12.03;;;;;;;19.59;100.00;96644.25;5037571;28;20021;-84
2023/09/27 03:31:39;;;;;;;16.53;12.37;;;;;;;19.23;100.00;96640.94;5013282;28;20019;-84
2023/09/27 03:34:09;;;;;;;13.60;9.93;;;;;;;19.30;100.00;96646.28;5040607;28;20025;-84
2023/09/27 03:36:36;;;;;;;14.83;11.23;;;;;;;19.45;100.00;96644.25;5018203;28;20496;-84
2023/09/27 03:39:04;;;;;;;14.67;11.10;;;;;;;19.24;100.00;96645.25;5031496;28;20151;-85
2023/09/27 03:41:31;;;;;;;13.43;10.20;;;;;;;19.16;100.00;96644.63;5030974;28;20014;-85
2023/09/27 03:43:57;;;;;;;14.37;11.00;;;;;;;19.04;100.00;96641.72;5027202;28;20025;-84
2023/09/27 03:46:23;;;;;;;15.70;10.80;;;;;;;19.02;100.00;96638.47;5031942;28;20740;-84
2023/09/27 03:48:49;;;;;;;11.23;8.80;;;;;;;18.91;100.00;96629.19;5008802;28;20472;-84
2023/09/27 03:51:24;;;;;;;13.27;9.73;;;;;;;19.13;100.00;96629.84;5030452;28;20032;-84
2023/09/27 03:53:50;;;;;;;14.70;9.00;;;;;;;19.35;100.00;96633.16;5031819;28;20017;-84
2023/09/27 03:56:17;;;;;;;14.97;9.10;;;;;;;19.46;100.00;96629.88;5016925;28;20124;-84
2023/09/27 03:58:42;;;;;;;12.73;9.27;;;;;;;18.64;100.00;96633.59;5010219;28;21031;-84
2023/09/27 04:01:08;;;;;;;15.33;10.37;;;;;;;18.98;100.00;96632.72;5024308;28;20036;-84
2023/09/27 04:03:33;;;;;;;16.67;11.73;;;;;;;19.06;100.00;96624.50;5025831;28;20018;-84
2023/09/27 04:05:59;;;;;;;16.60;12.23;;;;;;;18.94;100.00;96628.78;5032560;28;20036;-84
2023/09/27 04:08:24;;;;;;;15.77;11.10;;;;;;;19.18;100.00;96630.09;5023790;28;20096;-84
2023/09/27 04:10:50;;;;;;;15.20;11.00;;;;;;;19.50;100.00;96630.28;5013640;28;20017;-84
2023/09/27 04:13:15;;;;;;;13.77;9.90;;;;;;;19.74;100.00;96623.53;5027236;28;20030;-84
2023/09/27 04:15:41;;;;;;;13.73;9.80;;;;;;;19.76;100.00;96626.81;5014425;28;20033;-85
2023/09/27 04:18:07;;;;;;;13.67;9.13;;;;;;;19.80;100.00;96629.88;5027286;28;20033;-84
2023/09/27 04:20:32;;;;;;;14.07;9.13;;;;;;;19.60;100.00;96641.34;5032153;28;20037;-84
2023/09/27 04:22:59;;;;;;;14.27;8.93;;;;;;;19.25;100.00;96641.56;5030420;28;20060;-84
2023/09/27 04:25:24;;;;;;;12.30;9.07;;;;;;;18.93;100.00;96651.13;5002854;28;20156;-85
2023/09/27 04:27:50;;;;;;;12.40;8.87;;;;;;;18.97;100.00;96652.38;5020900;28;20168;-85
2023/09/27 04:30:19;;;;;;;15.17;10.43;;;;;;;18.83;100.00;96656.03;5007340;28;20037;-84
2023/09/27 04:32:50;;;;;;;14.53;10.97;;;;;;;18.51;100.00;96658.38;5022133;28;20128;-84
2023/09/27 04:35:15;;;;;;;14.10;10.60;;;;;;;18.82;100.00;96662.41;5025232;28;20033;-84
2023/09/27 04:37:41;;;;;;;15.20;10.97;;;;;;;19.01;100.00;96647.47;5019867;28;20575;-84
2023/09/27 04:40:10;;;;;;;12.37;10.40;;;;;;;19.25;100.00;96656.75;5017712;28;20033;-84
2023/09/27 04:42:35;;;;;;;14.50;11.23;;;;;;;19.01;100.00;96656.31;5019141;28;20028;-84
2023/09/27 04:45:02;;;;;;;14.60;10.30;;;;;;;18.98;100.00;96675.34;5017197;28;20025;-84
2023/09/27 04:47:27;;;;;;;15.40;10.83;;;;;;;18.61;100.00;96671.28;5021343;28;20037;-84
2023/09/27 04:49:53;;;;;;;13.67;10.87;;;;;;;18.86;100.00;96671.63;5006019;28;20567;-84
2023/09/27 04:52:20;;;;;;;15.70;11.23;;;;;;;19.05;100.00;96670.03;5005335;28;20117;-84
2023/09/27 04:54:46;;;;;;;12.47;10.73;;;;;;;18.33;100.00;96682.03;5032001;28;20059;-84
2023/09/27 04:57:12;;;;;;;15.47;10.33;;;;;;;18.46;100.00;96673.28;5030411;28;20030;-84
2023/09/27 04:59:37;;;;;;;14.87;12.17;;;;;;;18.72;100.00;96669.94;5025116;28;20029;-84
2023/09/27 05:02:03;;;;;;;16.67;12.10;;;;;;;18.86;100.00;96674.28;5024552;28;20025;-84
2023/09/27 05:04:29;;;;;;;14.30;10.17;;;;;;;18.87;100.00;96683.09;5004583;28;20033;-84
2023/09/27 05:06:55;;;;;;;14.07;10.90;;;;;;;18.57;100.00;96678.84;5019020;28;20034;-84
2023/09/27 05:09:20;;;;;;;13.57;10.40;;;;;;;18.92;100.00;96686.00;5027256;28;20033;-84
2023/09/27 05:11:46;;;;;;;16.40;10.40;;;;;;;18.88;100.00;96696.25;5028239;28;20083;-84
2023/09/27 05:14:13;;;;;;;14.87;10.30;;;;;;;19.03;100.00;96698.72;5006963;28;20036;-84
2023/09/27 05:16:38;;;;;;;12.43;8.67;;;;;;;18.86;100.00;96692.13;5015546;28;20033;-86
2023/09/27 05:19:04;;;;;;;14.93;9.00;;;;;;;18.53;100.00;96700.78;5015819;28;20026;-86
2023/09/27 05:21:29;;;;;;;10.87;8.93;;;;;;;18.14;100.00;96694.19;5029347;28;20037;-85
2023/09/27 05:23:55;;;;;;;11.33;8.57;;;;;;;18.71;100.00;96705.56;5026578;28;20486;-85
2023/09/27 05:26:21;;;;;;;15.20;8.87;;;;;;;19.14;100.00;96710.66;5014864;28;20032;-85
2023/09/27 05:28:46;;;;;;;11.67;8.90;;;;;;;18.97;100.00;96716.34;5029763;28;20029;-85
2023/09/27 05:31:12;;;;;;;12.60;8.80;;;;;;;19.24;100.00;96719.91;5049376;28;20032;-85
2023/09/27 05:33:37;;;;;;;11.10;7.80;;;;;;;19.19;100.00;96721.53;5028653;28;20045;-85
2023/09/27 05:36:03;;;;;;;14.63;10.00;;;;;;;19.48;100.00;96717.69;5034895;28;20032;-85
2023/09/27 05:38:29;;;;;;;12.37;8.93;;;;;;;19.90;100.00;96718.38;5025055;28;20021;-84
2023/09/27 05:40:55;;;;;;;11.73;9.17;;;;;;;19.93;100.00;96731.31;5019346;28;20076;-83
2023/09/27 05:43:20;;;;;;;13.93;7.77;;;;;;;19.80;100.00;96732.13;5012565;28;20028;-83
2023/09/27 05:45:46;;;;;;;13.63;8.27;;;;;;;20.15;100.00;96729.22;5027599;28;20028;-83
2023/09/27 05:48:14;;;;;;;13.17;8.13;;;;;;;19.81;100.00;96727.59;5025312;28;20029;-83
2023/09/27 05:50:44;;;;;;;10.27;7.30;;;;;;;19.68;100.00;96728.41;5011555;28;20029;-83
2023/09/27 05:53:16;;;;;;;10.70;8.37;;;;;;;19.60;100.00;96731.25;5021403;28;20025;-83
2023/09/27 05:55:42;;;;;;;12.60;7.93;;;;;;;19.91;100.00;96728.00;5012703;28;20075;-83
2023/09/27 05:58:08;;;;;;;10.70;6.97;;;;;;;20.43;100.00;96734.31;5027185;28;20052;-82
2023/09/27 06:00:46;;;;;;;12.57;7.30;;;;;;;20.89;100.00;96731.53;5027059;28;20064;-83
2023/09/27 06:03:12;;;;;;;11.17;6.17;;;;;;;21.16;100.00;96737.59;5027611;28;20022;-82
2023/09/27 06:05:39;;;;;;;9.80;6.30;;;;;;;21.62;100.00;96735.66;5015330;28;20031;-83
2023/09/27 06:08:04;;;;;;;15.30;9.27;;;;;;;21.50;100.00;96743.59;5028424;28;20029;-83
2023/09/27 06:10:30;;;;;;;9.93;6.60;;;;;;;21.36;100.00;96747.34;5027086;28;20040;-83
2023/09/27 06:12:56;;;;;;;10.20;7.17;;;;;;;21.18;100.00;96742.69;5026737;28;20021;-83
2023/09/27 06:15:21;;;;;;;10.77;6.47;;;;;;;21.54;96.36;96747.47;5027605;28;20028;-83
2023/09/27 06:17:48;;;;;;;11.53;6.67;;;;;;;21.67;95.45;96749.25;5027293;28;20041;-83
2023/09/27 06:20:20;;;;;;;12.10;6.67;;;;;;;22.08;97.21;96745.22;5025583;28;20025;-83
2023/09/27 06:22:52;;;;;;;12.13;7.00;;;;;;;22.40;98.49;96737.09;5034835;28;20021;-83
2023/09/27 06:25:18;;;;;;;11.30;6.37;;;;;;;22.69;91.65;96736.38;5034241;28;20033;-83
2023/09/27 06:27:44;;;;;;;12.00;6.60;;;;;;;22.53;94.64;96732.41;5033042;28;20111;-83
2023/09/27 06:30:11;;;;;;;9.37;6.80;;;;;;;22.22;99.97;96732.53;5028934;28;20029;-83
2023/09/27 06:32:37;;;;;;;9.90;6.50;;;;;;;22.57;96.00;96730.13;5032568;28;20021;-83
2023/09/27 06:35:12;;;;;;;10.67;6.40;;;;;;;21.93;100.00;96737.53;5012567;28;20045;-83
2023/09/27 06:37:40;;;;;;;10.40;6.87;;;;;;;22.98;94.60;96728.66;5021075;28;20052;-83
2023/09/27 06:40:09;;;;;;;12.07;7.43;;;;;;;22.99;97.65;96727.59;5007243;28;20136;-84
2023/09/27 06:42:35;;;;;;;10.83;7.30;;;;;;;23.43;89.83;96721.00;5013295;28;20021;-84
2023/09/27 06:45:01;;;;;;;11.43;7.17;;;;;;;23.67;92.71;96727.25;5016557;28;20417;-83
2023/09/27 06:47:31;;;;;;;11.63;7.10;;;;;;;23.39;92.80;96714.47;5024846;28;20029;-84
2023/09/27 06:49:56;;;;;;;9.07;5.93;;;;;;;23.45;99.89;96718.13;5015072;28;20259;-84
2023/09/27 06:52:22;;;;;;;11.20;6.40;;;;;;;24.17;90.96;96718.81;4991743;28;21105;-84
2023/09/27 06:54:48;;;;;;;10.05;6.35;;;;;;;24.52;87.02;96717.22;5017425;28;20052;-83
2023/09/27 06:57:14;;;;;;;13.80;6.53;;;;;;;25.23;77.50;96717.88;5020983;28;20148;-83
2023/09/27 06:59:39;;;;;;;36.88;8.35;;;;;;;25.56;79.24;96717.97;5048090;28;20033;-84
2023/09/27 07:02:06;;;;;;;760.70;71.90;;;;;;;26.13;75.55;96721.63;5010865;28;20029;-83
2023/09/27 07:04:31;;;;;;;23.90;8.30;;;;;;;26.89;70.84;96719.97;5024468;28;20029;-84
2023/09/27 07:06:58;;;;;;;9.63;6.30;;;;;;;26.32;71.71;96714.88;5000412;28;20041;-84
2023/09/27 07:09:23;;;;;;;12.00;6.40;;;;;;;25.56;76.32;96723.34;5009648;28;20029;-84
2023/09/27 07:11:49;;;;;;;10.80;6.47;;;;;;;26.74;74.18;96711.72;5008770;28;20029;-85
2023/09/27 07:14:17;;;;;;;22.20;7.95;;;;;;;27.36;67.31;96716.75;5035033;28;20029;-84
2023/09/27 07:16:43;;;;;;;115.40;18.20;;;;;;;29.03;60.14;96720.19;5024416;28;20028;-85
2023/09/27 07:19:09;;;;;;;21.00;7.05;;;;;;;29.04;59.10;96714.53;5027360;28;20041;-84
2023/09/27 07:21:35;;;;;;;57.67;8.35;;;;;;;28.59;58.80;96709.69;5033432;28;20025;-85
2023/09/27 07:24:01;;;;;;;85.63;10.57;;;;;;;28.95;56.88;96718.00;5023292;28;20034;-84
2023/09/27 07:26:27;;;;;;;62.13;10.20;;;;;;;29.50;57.03;96711.94;5013524;28;20515;-84
2023/09/27 07:28:52;;;;;;;106.93;14.68;;;;;;;29.86;54.96;96717.44;5020783;28;20021;-85
2023/09/27 07:31:18;;;;;;;23.42;7.35;;;;;;;30.28;55.03;96717.19;5009558;28;20422;-84
2023/09/27 07:33:44;;;;;;;33.15;8.93;;;;;;;30.39;54.96;96722.59;5011916;28;20090;-84
2023/09/27 07:36:10;;;;;;;36.15;7.85;;;;;;;30.63;53.67;96717.38;5021843;28;20036;-83
2023/09/27 07:38:39;;;;;;;21.23;7.30;;;;;;;30.75;51.65;96726.00;5028264;28;20301;-85
2023/09/27 07:41:08;;;;;;;24.52;10.55;;;;;;;30.95;50.65;96712.41;5007671;28;20117;-84
2023/09/27 07:43:34;;;;;;;20.10;10.25;;;;;;;31.59;48.77;96718.06;4992938;28;20020;-84
2023/09/27 07:46:06;;;;;;;34.80;11.80;;;;;;;31.36;48.85;96725.81;5029742;28;20395;-84
2023/09/27 07:48:35;;;;;;;49.42;12.82;;;;;;;31.14;47.86;96726.16;5016696;28;20116;-84
2023/09/27 07:51:02;;;;;;;18.80;10.95;;;;;;;30.69;49.26;96727.94;5015267;28;20041;-84
2023/09/27 07:53:28;;;;;;;51.60;14.65;;;;;;;31.09;49.33;96726.19;5025284;28;20515;-84
2023/09/27 07:55:56;;;;;;;54.40;13.10;;;;;;;31.46;48.55;96731.19;5014466;28;20020;-84
2023/09/27 07:58:22;;;;;;;70.82;14.20;;;;;;;31.36;49.62;96722.28;5004456;28;20029;-85
2023/09/27 08:00:48;;;;;;;42.75;9.85;;;;;;;31.32;47.01;96723.91;5009224;28;20030;-84
2023/09/27 08:03:14;;;;;;;51.42;12.10;;;;;;;31.90;47.34;96722.22;4990554;28;20018;-84
2023/09/27 08:05:43;;;;;;;17.02;9.90;;;;;;;31.74;48.26;96717.97;5008459;28;20026;-83
2023/09/27 08:08:16;;;;;;;18.13;11.93;;;;;;;32.89;44.88;96718.28;5024666;28;20120;-84
2023/09/27 08:10:43;;;;;;;;;;;;;;;31.16;46.62;96723.19;5008486;28;20083;-83
2023/09/27 08:13:14;;;;;;;9.75;6.22;;;;;;;30.98;47.51;96711.00;5010605;28;19913;-84
2023/09/27 08:15:41;;;;;;;13.57;9.90;;;;;;;31.85;46.82;96718.69;5007074;28;20047;-84
2023/09/27 08:18:07;;;;;;;15.30;12.27;;;;;;;31.85;47.09;96724.13;5019118;28;20082;-83
2023/09/27 08:20:35;;;;;;;13.98;11.15;;;;;;;32.17;45.09;96727.16;5015610;28;20030;-83
2023/09/27 08:23:02;;;;;;;12.70;10.52;;;;;;;32.52;43.88;96721.69;5008267;28;20038;-83
2023/09/27 08:25:29;;;;;;;8.55;6.40;;;;;;;32.08;44.99;96723.41;5008486;28;20037;-83
2023/09/27 08:27:56;;;;;;;10.52;6.10;;;;;;;30.88;47.02;96722.72;5022916;28;20025;-83
2023/09/27 08:30:23;;;;;;;12.88;9.13;;;;;;;31.87;45.73;96722.78;5008471;28;20039;-83
2023/09/27 08:32:49;;;;;;;11.82;8.02;;;;;;;31.81;45.62;96714.91;5010227;28;20022;-83
2023/09/27 08:35:16;;;;;;;10.27;6.32;;;;;;;31.99;44.63;96714.25;5005544;28;20041;-83
2023/09/27 08:37:41;;;;;;;12.88;11.20;;;;;;;31.96;44.86;96703.97;5004553;28;20017;-83
2023/09/27 08:40:12;;;;;;;8.70;6.03;;;;;;;32.26;45.60;96696.59;5024792;28;20025;-83
2023/09/27 08:42:39;;;;;;;8.40;6.25;;;;;;;33.76;42.96;96689.88;5009035;28;20036;-83
2023/09/27 08:45:14;;;;;;;8.88;6.28;;;;;;;32.48;45.86;96688.78;5029685;28;20049;-83
2023/09/27 08:47:45;;;;;;;9.15;5.38;;;;;;;31.39;46.45;96692.66;5024309;28;20488;-82
2023/09/27 08:50:13;;;;;;;8.68;6.15;;;;;;;32.74;45.19;96686.59;5023611;28;20404;-83
2023/09/27 08:52:45;;;;;;;8.90;6.55;;;;;;;32.45;44.72;96688.56;5016476;28;20080;-83
2023/09/27 08:55:12;;;;;;;7.63;5.50;;;;;;;32.44;43.69;96687.75;5011971;28;20063;-83
2023/09/27 08:57:51;;;;;;;8.07;5.05;;;;;;;32.91;42.88;96686.13;5025698;28;20144;-82
2023/09/27 09:00:21;;;;;;;7.93;5.65;;;;;;;32.85;43.55;96679.09;5023824;28;20257;-83
2023/09/27 09:02:49;;;;;;;7.10;5.65;;;;;;;33.74;40.36;96681.19;5010407;28;20024;-82
2023/09/27 09:05:16;;;;;;;9.23;3.85;;;;;;;31.61;43.24;96680.53;5044859;28;20021;-83
2023/09/27 09:07:43;;;;;;;9.40;6.57;;;;;;;33.18;41.38;96680.06;5025732;28;20115;-83
2023/09/27 09:10:14;;;;;;;10.68;5.57;;;;;;;33.69;40.17;96687.53;5026248;28;20092;-83
2023/09/27 09:12:41;;;;;;;7.53;4.38;;;;;;;31.89;43.60;96689.84;5013414;28;20096;-83
2023/09/27 09:15:14;;;;;;;7.53;4.25;;;;;;;32.75;43.17;96677.31;5032972;28;20020;-82
2023/09/27 09:17:44;;;;;;;6.75;4.10;;;;;;;31.77;45.70;96676.59;5015459;28;20033;-83
2023/09/27 09:20:21;;;;;;;8.82;6.15;;;;;;;31.71;46.39;96675.00;5027695;28;20484;-83
2023/09/27 09:22:49;;;;;;;8.00;5.10;;;;;;;33.01;43.50;96668.84;5011323;28;20026;-82
2023/09/27 09:25:14;;;;;;;8.32;5.20;;;;;;;32.23;46.52;96672.66;5022455;28;20064;-83
2023/09/27 09:27:40;;;;;;;6.95;4.90;;;;;;;33.36;42.87;96675.72;5009450;28;20061;-83
2023/09/27 09:30:09;;;;;;;7.68;4.15;;;;;;;34.16;42.86;96672.03;5027751;28;20075;-82
2023/09/27 09:32:47;;;;;;;7.40;4.32;;;;;;;33.26;44.36;96660.31;5031240;28;20387;-83
2023/09/27 09:35:27;;;;;;;9.27;5.70;;;;;;;34.01;43.21;96662.19;5016905;28;20095;-83
2023/09/27 09:37:53;;;;;;;7.35;4.88;;;;;;;34.60;41.80;96656.22;5026564;28;20029;-82
2023/09/27 09:40:19;;;;;;;6.90;4.15;;;;;;;34.63;41.50;96650.16;5031256;28;20128;-83
2023/09/27 09:42:48;;;;;;;7.22;4.13;;;;;;;32.84;43.29;96653.78;5024292;28;20034;-83
2023/09/27 09:45:14;;;;;;;7.57;5.40;;;;;;;34.86;41.22;96640.94;5010599;28;20030;-83
2023/09/27 09:47:41;;;;;;;5.47;4.00;;;;;;;33.44;43.65;96645.06;5008514;28;20025;-83
2023/09/27 09:50:16;;;;;;;7.25;4.68;;;;;;;33.96;43.11;96650.53;5026425;28;20025;-83
2023/09/27 09:52:48;;;;;;;9.05;4.57;;;;;;;35.06;41.06;96644.38;5025930;28;20410;-83
2023/09/27 09:55:19;;;;;;;11.35;4.28;;;;;;;35.08;40.45;96642.13;5010467;28;20060;-83
2023/09/27 09:57:46;;;;;;;7.95;4.18;;;;;;;35.53;39.48;96632.09;5023720;28;20045;-82
2023/09/27 10:00:25;;;;;;;7.28;4.00;;;;;;;35.31;39.99;96635.63;5027350;28;20083;-83
2023/09/27 10:02:58;;;;;;;6.68;3.42;;;;;;;35.67;40.40;96623.84;5028283;28;20018;-82
2023/09/27 10:05:25;;;;;;;6.43;3.78;;;;;;;36.07;38.82;96618.47;5010001;28;20017;-83
2023/09/27 10:07:51;;;;;;;6.57;4.07;;;;;;;35.25;40.76;96625.09;5009068;28;20032;-83
2023/09/27 10:10:18;;;;;;;6.18;4.10;;;;;;;35.52;39.69;96614.09;5019889;28;20104;-83
2023/09/27 10:12:47;;;;;;;7.70;4.63;;;;;;;34.44;41.03;96612.81;5022050;28;20112;-83
2023/09/27 10:15:17;;;;;;;6.80;4.50;;;;;;;33.82;40.65;96615.03;5003701;28;20035;-82
2023/09/27 10:17:43;;;;;;;7.50;3.90;;;;;;;34.51;40.66;96609.69;5009029;28;20033;-83
2023/09/27 10:20:12;;;;;;;9.43;3.40;;;;;;;32.83;42.76;96607.75;5024084;28;20073;-83
2023/09/27 10:22:42;;;;;;;4.90;3.50;;;;;;;33.55;42.93;96594.75;5025147;28;20013;-83
2023/09/27 10:25:23;;;;;;;6.80;3.70;;;;;;;32.41;44.08;96590.28;5010110;28;20057;-83
2023/09/27 10:28:08;;;;;;;6.25;3.55;;;;;;;35.06;39.49;96584.25;5009910;28;20037;-83
2023/09/27 10:30:40;;;;;;;6.72;3.50;;;;;;;32.84;42.93;96582.16;5013208;28;20029;-82
2023/09/27 10:33:14;;;;;;;13.10;4.40;;;;;;;33.02;42.52;96580.56;5010181;28;20087;-83
2023/09/27 10:36:07;;;;;;;7.22;2.58;;;;;;;33.25;39.32;96578.84;5016172;28;20052;-83
2023/09/27 10:38:42;;;;;;;;;;;;;;;33.23;38.95;96572.88;5026372;28;20052;-83
2023/09/27 10:41:08;;;;;;;4.07;2.25;;;;;;;33.59;38.22;96572.34;5020840;28;19909;-82
2023/09/27 10:43:43;;;;;;;4.63;2.53;;;;;;;32.80;38.10;96572.94;5015498;28;20052;-83
2023/09/27 10:46:09;;;;;;;4.78;2.75;;;;;;;32.12;39.19;96568.56;5010415;28;20021;-83
2023/09/27 10:48:36;;;;;;;3.83;2.30;;;;;;;32.00;39.69;96560.03;5027087;28;20030;-83
2023/09/27 10:51:02;;;;;;;19.23;4.53;;;;;;;31.76;38.78;96562.66;5027283;28;20073;-82
2023/09/27 10:53:28;;;;;;;4.72;2.30;;;;;;;31.95;39.40;96558.16;5008278;28;20022;-82
2023/09/27 10:55:54;;;;;;;3.17;1.95;;;;;;;32.55;38.38;96555.81;5017879;28;20325;-83
2023/09/27 10:58:19;;;;;;;4.43;2.50;;;;;;;32.37;38.07;96559.31;5011879;28;20057;-83
2023/09/27 11:00:55;;;;;;;9.93;2.95;;;;;;;32.67;38.30;96549.97;5010647;28;20057;-83
2023/09/27 11:03:23;;;;;;;3.88;2.33;;;;;;;32.13;37.81;96551.97;5021550;28;20021;-83
2023/09/27 11:05:49;;;;;;;5.75;2.63;;;;;;;32.81;37.08;96542.69;5017985;28;20398;-83
2023/09/27 11:08:23;;;;;;;5.80;2.30;;;;;;;33.09;37.20;96529.22;5009827;28;20125;-83
2023/09/27 11:10:50;;;;;;;6.18;2.40;;;;;;;33.16;36.91;96532.38;5027386;28;20048;-83
2023/09/27 11:13:17;;;;;;;3.50;2.17;;;;;;;34.20;36.28;96508.47;5024003;28;20034;-83
2023/09/27 11:16:09;;;;;;;5.10;2.72;;;;;;;33.56;37.09;96516.47;5029370;28;20026;-83
2023/09/27 11:18:42;;;;;;;4.45;2.35;;;;;;;32.56;37.69;96518.53;5011058;28;20029;-83
2023/09/27 11:21:09;;;;;;;4.70;2.10;;;;;;;33.26;36.11;96507.66;5025303;28;20037;-83
2023/09/27 11:23:58;;;;;;;4.72;1.80;;;;;;;33.84;36.09;96514.59;5009313;28;20443;-83